createdAt,value
2019-03-01T00:00:01.099Z,23.14
2019-03-01T00:05:01.458Z,23.14
2019-03-01T00:10:01.062Z,23.15
2019-03-01T00:15:01.105Z,23.16
2019-03-01T00:20:01.114Z,23.17
2019-03-01T00:25:01.135Z,23.17
2019-03-01T00:30:01.110Z,23.19
2019-03-01T00:35:01.110Z,23.20
2019-03-01T00:40:01.078Z,23.21
2019-03-01T00:45:01.115Z,23.21
2019-03-01T00:50:01.037Z,23.23
2019-03-01T00:55:01.062Z,23.23
2019-03-01T01:00:01.086Z,23.24
2019-03-01T01:05:01.115Z,23.27
2019-03-01T01:10:01.098Z,23.28
2019-03-01T01:15:01.088Z,23.29
2019-03-01T01:20:01.096Z,23.28
2019-03-01T01:25:01.101Z,23.28
2019-03-01T01:30:01.099Z,23.29
2019-03-01T01:35:01.155Z,23.28
2019-03-01T01:40:01.174Z,23.29
2019-03-01T01:45:01.048Z,23.30
2019-03-01T01:50:01.120Z,23.28
2019-03-01T01:55:01.118Z,23.30
2019-03-01T02:00:01.085Z,23.29
2019-03-01T02:05:01.462Z,23.31
2019-03-01T02:10:01.084Z,23.30
2019-03-01T02:15:01.113Z,23.29
2019-03-01T02:20:01.118Z,23.30
2019-03-01T02:25:01.121Z,23.31
2019-03-01T02:30:01.130Z,23.30
2019-03-01T02:35:01.112Z,23.31
2019-03-01T02:40:01.127Z,23.30
2019-03-01T02:45:01.085Z,23.31
2019-03-01T02:50:01.053Z,23.31
2019-03-01T02:55:01.093Z,23.33
2019-03-01T03:00:01.124Z,23.31
2019-03-01T03:05:01.095Z,23.30
2019-03-01T03:10:01.100Z,23.31
2019-03-01T03:15:01.087Z,23.32
2019-03-01T03:20:01.106Z,23.31
2019-03-01T03:25:01.086Z,23.32
2019-03-01T03:30:01.115Z,23.30
2019-03-01T03:35:01.087Z,23.30
2019-03-01T03:40:01.102Z,23.30
2019-03-01T03:45:01.113Z,23.31
2019-03-01T03:50:01.088Z,23.30
2019-03-01T03:55:01.131Z,23.30
2019-03-01T04:00:01.100Z,23.30
2019-03-01T04:05:01.150Z,23.30
2019-03-01T04:10:01.100Z,23.29
2019-03-01T04:15:01.206Z,23.29
2019-03-01T04:20:01.101Z,23.30
2019-03-01T04:25:01.120Z,23.29
2019-03-01T04:30:01.126Z,23.29
2019-03-01T04:35:01.064Z,23.29
2019-03-01T04:40:01.093Z,23.29
2019-03-01T04:45:01.083Z,23.28
2019-03-01T04:50:01.087Z,23.28
2019-03-01T04:55:01.093Z,23.27
2019-03-01T05:00:01.085Z,23.28
2019-03-01T05:05:01.059Z,23.27
2019-03-01T05:10:01.106Z,23.26
2019-03-01T05:15:01.098Z,23.27
2019-03-01T05:20:01.079Z,23.26
2019-03-01T05:25:01.080Z,23.27
2019-03-01T05:30:01.062Z,23.26
2019-03-01T05:35:01.128Z,23.25
2019-03-01T05:40:01.066Z,23.25
2019-03-01T05:45:01.106Z,23.24
2019-03-01T05:50:01.113Z,23.24
2019-03-01T05:55:01.058Z,23.24
2019-03-01T06:00:01.101Z,23.25
2019-03-01T06:05:01.104Z,23.24
2019-03-01T06:10:01.111Z,23.21
2019-03-01T06:15:01.092Z,23.22
2019-03-01T06:20:01.051Z,23.23
2019-03-01T06:25:01.129Z,23.22
2019-03-01T06:30:01.110Z,23.22
2019-03-01T06:35:01.528Z,23.20
2019-03-01T06:40:01.096Z,23.20
2019-03-01T06:45:01.124Z,23.20
2019-03-01T06:50:01.100Z,23.20
2019-03-01T06:55:01.083Z,23.19
2019-03-01T07:00:01.110Z,23.20
2019-03-01T07:05:01.100Z,23.20
2019-03-01T07:10:01.112Z,23.19
2019-03-01T07:15:01.094Z,23.19
2019-03-01T07:20:01.070Z,23.19
2019-03-01T07:25:01.106Z,23.19
2019-03-01T07:30:01.096Z,23.19
2019-03-01T07:35:01.102Z,23.19
2019-03-01T07:40:01.105Z,23.19
2019-03-01T07:45:01.093Z,23.17
2019-03-01T07:50:01.087Z,23.17
2019-03-01T07:55:01.636Z,23.16
2019-03-01T08:00:01.106Z,23.15
2019-03-01T08:05:04.075Z,23.17
2019-03-01T08:10:01.104Z,23.17
2019-03-01T08:15:04.149Z,23.17
2019-03-01T08:20:01.112Z,23.18
2019-03-01T08:25:01.544Z,23.18
2019-03-01T08:30:01.684Z,23.17
2019-03-01T08:35:01.112Z,23.18
2019-03-01T08:40:01.101Z,23.18
2019-03-01T08:45:01.113Z,23.18
2019-03-01T08:50:01.087Z,23.21
2019-03-01T08:55:03.814Z,23.20
2019-03-01T09:00:01.115Z,23.21
2019-03-01T09:05:01.560Z,23.20
2019-03-01T09:10:01.084Z,23.21
2019-03-01T09:15:04.536Z,23.22
2019-03-01T09:20:01.282Z,23.22
2019-03-01T09:25:02.669Z,23.23
2019-03-01T09:30:03.674Z,23.22
2019-03-01T09:35:04.252Z,23.22
2019-03-01T09:40:05.546Z,23.23
2019-03-01T09:45:01.105Z,23.23
2019-03-01T09:50:01.218Z,23.22
2019-03-01T09:55:01.058Z,23.23
2019-03-01T10:00:01.078Z,23.23
2019-03-01T10:05:01.094Z,23.23
2019-03-01T10:10:01.101Z,23.22
2019-03-01T10:15:01.497Z,23.23
2019-03-01T10:20:01.097Z,23.22
2019-03-01T10:25:01.095Z,23.24
2019-03-01T10:30:01.086Z,23.22
2019-03-01T10:35:01.102Z,23.21
2019-03-01T10:40:01.105Z,23.22
2019-03-01T10:45:01.109Z,23.22
2019-03-01T10:50:01.101Z,23.22
2019-03-01T10:55:01.401Z,23.21
2019-03-01T11:00:01.069Z,23.22
2019-03-01T11:05:01.106Z,23.22
2019-03-01T11:10:01.057Z,23.22
2019-03-01T11:15:01.096Z,23.20
2019-03-01T11:20:01.104Z,23.21
2019-03-01T11:25:01.067Z,23.22
2019-03-01T11:30:01.092Z,23.21
2019-03-01T11:35:01.115Z,23.21
2019-03-01T11:40:01.113Z,23.22
2019-03-01T11:45:01.111Z,23.20
2019-03-01T11:50:01.033Z,23.21
2019-03-01T11:55:01.104Z,23.20
2019-03-01T12:00:01.102Z,23.20
2019-03-01T12:05:01.059Z,23.21
2019-03-01T12:10:01.104Z,23.20
2019-03-01T12:15:01.129Z,23.19
2019-03-01T12:20:01.047Z,23.20
2019-03-01T12:25:01.068Z,23.19
2019-03-01T12:30:01.119Z,23.19
2019-03-01T12:35:01.059Z,23.19
2019-03-01T12:40:01.061Z,23.18
2019-03-01T12:45:01.079Z,23.17
2019-03-01T12:50:01.507Z,23.18
2019-03-01T12:55:01.100Z,23.18
2019-03-01T13:00:01.141Z,23.18
2019-03-01T13:05:01.244Z,23.17
2019-03-01T13:10:03.215Z,23.17
2019-03-01T13:15:01.101Z,23.16
2019-03-01T13:20:02.517Z,23.15
2019-03-01T13:25:01.522Z,23.16
2019-03-01T13:30:01.076Z,23.14
2019-03-01T13:35:01.077Z,23.15
2019-03-01T13:40:01.623Z,23.14
2019-03-01T13:45:01.046Z,23.14
2019-03-01T13:50:05.389Z,23.13
2019-03-01T13:55:01.662Z,23.13
2019-03-01T14:00:01.212Z,23.14
2019-03-01T14:05:01.629Z,23.13
2019-03-01T14:10:04.734Z,23.12
2019-03-01T14:15:02.964Z,23.12
2019-03-01T14:20:01.097Z,23.12
2019-03-01T14:25:02.456Z,23.11
2019-03-01T14:30:01.097Z,23.11
2019-03-01T14:35:01.332Z,23.10
2019-03-01T14:40:01.080Z,23.10
2019-03-01T14:45:01.099Z,23.10
2019-03-01T14:50:01.065Z,23.10
2019-03-01T14:55:01.090Z,23.09
2019-03-01T15:00:01.108Z,23.08
2019-03-01T15:05:04.891Z,23.08
2019-03-01T15:10:01.093Z,23.08
2019-03-01T15:15:01.076Z,23.06
2019-03-01T15:20:01.112Z,23.07
2019-03-01T15:25:01.754Z,23.08
2019-03-01T15:30:01.104Z,23.06
2019-03-01T15:35:04.018Z,23.05
2019-03-01T15:40:01.094Z,23.06
2019-03-01T15:45:01.593Z,23.09
2019-03-01T15:50:01.078Z,23.08
2019-03-01T15:55:01.096Z,23.07
2019-03-01T16:00:01.475Z,23.05
2019-03-01T16:05:01.033Z,23.07
2019-03-01T16:10:02.208Z,23.06
2019-03-01T16:15:01.590Z,23.05
2019-03-01T16:20:01.046Z,23.05
2019-03-01T16:25:01.064Z,23.05
2019-03-01T16:30:01.103Z,23.04
2019-03-01T16:35:01.108Z,23.03
2019-03-01T16:40:01.587Z,23.02
2019-03-01T16:45:01.100Z,23.01
2019-03-01T16:50:02.932Z,23.02
2019-03-01T16:55:01.327Z,23.01
2019-03-01T17:00:01.599Z,23.02
2019-03-01T17:05:03.751Z,23.02
2019-03-01T17:10:01.384Z,23.00
2019-03-01T17:15:01.865Z,23.01
2019-03-01T17:20:02.520Z,23.02
2019-03-01T17:25:01.359Z,23.01
2019-03-01T17:30:01.369Z,23.00
2019-03-01T17:35:04.965Z,22.99
2019-03-01T17:40:01.342Z,22.98
2019-03-01T17:45:01.387Z,22.99
2019-03-01T17:50:01.096Z,22.99
2019-03-01T17:55:02.653Z,22.99
2019-03-01T18:00:01.095Z,22.99
2019-03-01T18:05:01.122Z,22.97
2019-03-01T18:10:01.059Z,22.98
2019-03-01T18:15:01.083Z,22.98
2019-03-01T18:20:01.665Z,22.97
2019-03-01T18:25:01.571Z,22.98
2019-03-01T18:30:01.070Z,22.98
2019-03-01T18:35:01.999Z,22.96
2019-03-01T18:40:01.107Z,22.96
2019-03-01T18:45:03.524Z,22.95
2019-03-01T18:50:01.044Z,22.96
2019-03-01T18:55:01.103Z,22.95
2019-03-01T19:00:01.324Z,22.94
2019-03-01T19:05:04.456Z,22.94
2019-03-01T19:10:01.094Z,22.95
2019-03-01T19:15:01.385Z,22.95
2019-03-01T19:20:02.111Z,22.95
2019-03-01T19:25:02.276Z,22.94
2019-03-01T19:30:01.076Z,22.95
2019-03-01T19:35:01.092Z,22.95
2019-03-01T19:40:01.100Z,22.96
2019-03-01T19:45:04.572Z,22.97
2019-03-01T19:50:01.090Z,22.97
2019-03-01T19:55:01.124Z,22.99
